McAllen, TX

8:56 AM CDT on September 29, 2016 (GMT -0500)
McAllen Miller International | | Change Station

Elev 105 ft 26.18 °N, 98.24 °W | Updated 3 minutes ago

Overcast
Overcast
81 °F
Feels Like 86 °F
N
7
Wind Variable Wind from North

Today
High -- | Low -- °F
--% Chance of Precip.
Yesterday
High -- | Low -- °F
Precip. -- in
Pressure 30.11 in
Visibility 10.0 miles
Clouds Mostly Cloudy 7500 ft
Overcast 11000 ft
Heat Index 86 °F
Dew Point 73 °F
Humidity 77%
Rainfall 0.00 in
Snow Depth Not available.
7:24 AM 7:21 PM
Waning Crescent, 2% visible
METAR KMFE 291353Z 36006KT 10SM BKN075 OVC110 27/23 A3011 RMK AO2 SLP195 T02720228
Pressure 30.11 in
Visibility 10.0 miles
Clouds Mostly Cloudy 7500 ft
Overcast 11000 ft
Heat Index 86 °F
Dew Point 73 °F
Humidity 77%
Rainfall 0.00 in
Snow Depth Not available.
7:24 AM 7:21 PM
Waning Crescent, 2% visible
METAR KMFE 291353Z 36006KT 10SM BKN075 OVC110 27/23 A3011 RMK AO2 SLP195 T02720228

10-Day Weather Forecast

Almanac

Astronomy

Sep. 29, 2016 Rise Set
Actual Time
Civil Twilight
Nautical Twilight
Astronomical Twilight
Moon
Length of Visible Light
Length of Day
Tomorrow will be .
, % of the Moon is Illuminated

Today's Extremes

State Highs State Lows

Community

WunderPhotos

Upload Photos

1,942,470 photos uploaded!

WunderBlog® & News

Nearby

Air Quality

  Air Quality AQ Index Pollutant
Not available.

Snow Depth

Station Depth Elevation

Earthquake Activity

City Distance Mag. Time & Date
Minimum magnitude displayed is 2.5.

Coastal Water Temperatures

Place Temperature

Stations

Nearby Weather Stations

Station Location Temp. Windchill Dew Point Humidity Wind Precip. Elev Updated Type
                   

Watches & Warnings

There are currently no watches in effect.